sensor_id;sensor_type;location;lat;lon;timestamp;pressure;altitude;pressure_sealevel;temperature;humidity
40992;BME280;29633;49.168;9.848;2023-04-07T00:01:47;96879.19;;;12.94;50.77
40992;BME280;29633;49.168;9.848;2023-04-07T00:04:12;96885.34;;;12.93;50.66
40992;BME280;29633;49.168;9.848;2023-04-07T00:06:38;96890.16;;;12.88;50.69
40992;BME280;29633;49.168;9.848;2023-04-07T00:09:04;96891.50;;;12.82;50.76
40992;BME280;29633;49.168;9.848;2023-04-07T00:11:30;96889.28;;;12.77;50.85
40992;BME280;29633;49.168;9.848;2023-04-07T00:13:56;96885.19;;;12.75;50.90
40992;BME280;29633;49.168;9.848;2023-04-07T00:16:22;96882.03;;;12.71;50.86
40992;BME280;29633;49.168;9.848;2023-04-07T00:18:48;96884.75;;;12.70;51.00
40992;BME280;29633;49.168;9.848;2023-04-07T00:21:13;96889.28;;;12.68;50.97
40992;BME280;29633;49.168;9.848;2023-04-07T00:23:39;96881.22;;;12.71;51.10
40992;BME280;29633;49.168;9.848;2023-04-07T00:26:04;96880.25;;;12.72;51.05
40992;BME280;29633;49.168;9.848;2023-04-07T00:28:30;96875.72;;;12.74;51.13
40992;BME280;29633;49.168;9.848;2023-04-07T00:30:56;96869.84;;;12.62;51.21
40992;BME280;29633;49.168;9.848;2023-04-07T00:33:21;96870.63;;;12.53;51.18
40992;BME280;29633;49.168;9.848;2023-04-07T00:35:47;96860.50;;;12.50;51.40
40992;BME280;29633;49.168;9.848;2023-04-07T00:38:12;96863.88;;;12.41;51.37
40992;BME280;29633;49.168;9.848;2023-04-07T00:40:38;96862.09;;;12.32;51.64
40992;BME280;29633;49.168;9.848;2023-04-07T00:43:04;96854.25;;;12.22;51.47
40992;BME280;29633;49.168;9.848;2023-04-07T00:45:29;96855.47;;;12.18;51.51
40992;BME280;29633;49.168;9.848;2023-04-07T00:47:56;96856.53;;;12.16;51.75
40992;BME280;29633;49.168;9.848;2023-04-07T00:50:22;96848.59;;;12.08;51.73
40992;BME280;29633;49.168;9.848;2023-04-07T00:52:48;96852.25;;;12.05;51.71
40992;BME280;29633;49.168;9.848;2023-04-07T00:55:14;96858.09;;;11.98;51.80
40992;BME280;29633;49.168;9.848;2023-04-07T00:57:39;96853.69;;;11.89;51.83
40992;BME280;29633;49.168;9.848;2023-04-07T01:00:06;96853.50;;;11.80;52.17
40992;BME280;29633;49.168;9.848;2023-04-07T01:02:40;96848.69;;;11.76;51.77
40992;BME280;29633;49.168;9.848;2023-04-07T01:05:34;96837.13;;;11.69;51.90
40992;BME280;29633;49.168;9.848;2023-04-07T01:08:16;96842.97;;;11.61;51.86
40992;BME280;29633;49.168;9.848;2023-04-07T01:16:04;96836.63;;;11.54;52.02
40992;BME280;29633;49.168;9.848;2023-04-07T01:18:31;96842.81;;;11.53;52.25
40992;BME280;29633;49.168;9.848;2023-04-07T01:21:13;96839.19;;;11.45;52.30
40992;BME280;29633;49.168;9.848;2023-04-07T01:26:34;96831.81;;;11.29;52.36
40992;BME280;29633;49.168;9.848;2023-04-07T01:29:10;96827.72;;;11.26;52.41
40992;BME280;29633;49.168;9.848;2023-04-07T01:31:40;96823.63;;;11.24;52.14
40992;BME280;29633;49.168;9.848;2023-04-07T01:34:09;96821.75;;;11.15;52.46
40992;BME280;29633;49.168;9.848;2023-04-07T01:36:37;96828.03;;;11.12;52.49
40992;BME280;29633;49.168;9.848;2023-04-07T01:39:02;96822.72;;;11.14;52.37
40992;BME280;29633;49.168;9.848;2023-04-07T01:41:28;96826.13;;;11.14;52.71
40992;BME280;29633;49.168;9.848;2023-04-07T01:43:54;96817.13;;;11.18;52.22
40992;BME280;29633;49.168;9.848;2023-04-07T01:46:20;96817.97;;;11.19;52.56
40992;BME280;29633;49.168;9.848;2023-04-07T01:48:47;96816.31;;;11.18;52.60
40992;BME280;29633;49.168;9.848;2023-04-07T01:51:13;96808.94;;;11.13;52.58
40992;BME280;29633;49.168;9.848;2023-04-07T01:53:46;96808.69;;;11.16;52.44
40992;BME280;29633;49.168;9.848;2023-04-07T01:56:15;96801.72;;;11.17;52.84
40992;BME280;29633;49.168;9.848;2023-04-07T01:58:41;96799.38;;;11.14;52.70
40992;BME280;29633;49.168;9.848;2023-04-07T02:01:06;96800.75;;;11.18;52.69
40992;BME280;29633;49.168;9.848;2023-04-07T02:03:43;96794.75;;;11.17;52.82
40992;BME280;29633;49.168;9.848;2023-04-07T02:06:12;96798.16;;;11.18;52.94
40992;BME280;29633;49.168;9.848;2023-04-07T02:08:43;96798.03;;;11.19;52.65
40992;BME280;29633;49.168;9.848;2023-04-07T02:11:11;96785.75;;;11.21;52.92
40992;BME280;29633;49.168;9.848;2023-04-07T02:13:37;96784.56;;;11.25;52.99
40992;BME280;29633;49.168;9.848;2023-04-07T02:16:05;96784.31;;;11.28;53.14
40992;BME280;29633;49.168;9.848;2023-04-07T02:18:31;96779.69;;;11.32;52.93
40992;BME280;29633;49.168;9.848;2023-04-07T02:20:58;96775.19;;;11.34;53.01
40992;BME280;29633;49.168;9.848;2023-04-07T02:23:25;96769.75;;;11.37;52.92
40992;BME280;29633;49.168;9.848;2023-04-07T02:25:50;96766.19;;;11.38;52.98
40992;BME280;29633;49.168;9.848;2023-04-07T02:28:16;96774.66;;;11.40;53.26
40992;BME280;29633;49.168;9.848;2023-04-07T02:30:41;96765.94;;;11.41;53.12
40992;BME280;29633;49.168;9.848;2023-04-07T02:33:07;96760.47;;;11.44;53.18
40992;BME280;29633;49.168;9.848;2023-04-07T02:35:33;96757.22;;;11.42;53.30
40992;BME280;29633;49.168;9.848;2023-04-07T02:37:58;96755.44;;;11.43;53.25
40992;BME280;29633;49.168;9.848;2023-04-07T02:40:24;96758.84;;;11.43;53.23
40992;BME280;29633;49.168;9.848;2023-04-07T02:42:49;96748.44;;;11.43;53.26
40992;BME280;29633;49.168;9.848;2023-04-07T02:45:15;96745.63;;;11.46;53.12
40992;BME280;29633;49.168;9.848;2023-04-07T02:47:41;96749.84;;;11.47;53.22
40992;BME280;29633;49.168;9.848;2023-04-07T02:50:06;96747.13;;;11.49;53.47
40992;BME280;29633;49.168;9.848;2023-04-07T02:52:32;96745.47;;;11.48;53.31
40992;BME280;29633;49.168;9.848;2023-04-07T02:54:58;96747.94;;;11.49;53.29
40992;BME280;29633;49.168;9.848;2023-04-07T02:57:23;96742.75;;;11.49;53.47
40992;BME280;29633;49.168;9.848;2023-04-07T02:59:49;96743.44;;;11.51;53.46
40992;BME280;29633;49.168;9.848;2023-04-07T03:02:15;96742.75;;;11.49;53.46
40992;BME280;29633;49.168;9.848;2023-04-07T03:04:41;96734.25;;;11.47;53.56
40992;BME280;29633;49.168;9.848;2023-04-07T03:07:06;96737.69;;;11.48;53.60
40992;BME280;29633;49.168;9.848;2023-04-07T03:09:32;96735.91;;;11.48;53.58
40992;BME280;29633;49.168;9.848;2023-04-07T03:11:58;96729.06;;;11.47;53.74
40992;BME280;29633;49.168;9.848;2023-04-07T03:14:23;96735.25;;;11.46;53.62
40992;BME280;29633;49.168;9.848;2023-04-07T03:16:49;96730.84;;;11.47;53.68
40992;BME280;29633;49.168;9.848;2023-04-07T03:19:15;96728.25;;;11.47;53.79
40992;BME280;29633;49.168;9.848;2023-04-07T03:21:40;96722.94;;;11.48;53.74
40992;BME280;29633;49.168;9.848;2023-04-07T03:24:06;96717.19;;;11.45;53.83
40992;BME280;29633;49.168;9.848;2023-04-07T03:26:32;96721.44;;;11.46;53.80
40992;BME280;29633;49.168;9.848;2023-04-07T03:28:58;96718.13;;;11.44;54.01
40992;BME280;29633;49.168;9.848;2023-04-07T03:31:23;96713.19;;;11.41;53.89
40992;BME280;29633;49.168;9.848;2023-04-07T03:33:49;96714.28;;;11.38;53.99
40992;BME280;29633;49.168;9.848;2023-04-07T03:36:15;96717.72;;;11.39;53.93
40992;BME280;29633;49.168;9.848;2023-04-07T03:38:42;96710.03;;;11.37;54.01
40992;BME280;29633;49.168;9.848;2023-04-07T03:41:08;96716.19;;;11.36;53.99
40992;BME280;29633;49.168;9.848;2023-04-07T03:43:33;96699.94;;;11.34;54.19
40992;BME280;29633;49.168;9.848;2023-04-07T03:45:59;96706.63;;;11.36;54.05
40992;BME280;29633;49.168;9.848;2023-04-07T03:48:25;96702.25;;;11.37;54.06
40992;BME280;29633;49.168;9.848;2023-04-07T03:50:50;96705.69;;;11.38;53.82
40992;BME280;29633;49.168;9.848;2023-04-07T03:53:16;96705.00;;;11.35;53.96
40992;BME280;29633;49.168;9.848;2023-04-07T03:55:43;96706.78;;;11.35;54.37
40992;BME280;29633;49.168;9.848;2023-04-07T03:58:09;96708.53;;;11.34;54.27
40992;BME280;29633;49.168;9.848;2023-04-07T04:00:35;96710.41;;;11.32;54.38
40992;BME280;29633;49.168;9.848;2023-04-07T04:03:01;96715.06;;;11.29;54.28
40992;BME280;29633;49.168;9.848;2023-04-07T04:05:26;96712.59;;;11.27;54.24
40992;BME280;29633;49.168;9.848;2023-04-07T04:07:52;96704.09;;;11.25;54.63
40992;BME280;29633;49.168;9.848;2023-04-07T04:10:18;96707.53;;;11.26;54.42
40992;BME280;29633;49.168;9.848;2023-04-07T04:12:47;96703.44;;;11.23;54.59
40992;BME280;29633;49.168;9.848;2023-04-07T04:15:13;96704.25;;;11.24;54.55
40992;BME280;29633;49.168;9.848;2023-04-07T04:17:39;96700.13;;;11.21;54.53
40992;BME280;29633;49.168;9.848;2023-04-07T04:20:06;96700.53;;;11.17;54.58
40992;BME280;29633;49.168;9.848;2023-04-07T04:22:32;96699.81;;;11.15;54.96
40992;BME280;29633;49.168;9.848;2023-04-07T04:24:58;96695.84;;;11.11;54.66
40992;BME280;29633;49.168;9.848;2023-04-07T04:27:24;96696.66;;;11.11;54.65
40992;BME280;29633;49.168;9.848;2023-04-07T04:29:50;96695.72;;;11.12;54.76
40992;BME280;29633;49.168;9.848;2023-04-07T04:32:16;96693.38;;;11.09;54.59
40992;BME280;29633;49.168;9.848;2023-04-07T04:34:42;96701.28;;;11.08;54.72
40992;BME280;29633;49.168;9.848;2023-04-07T04:37:08;96698.28;;;11.03;54.91
40992;BME280;29633;49.168;9.848;2023-04-07T04:39:33;96701.69;;;11.03;54.95
40992;BME280;29633;49.168;9.848;2023-04-07T04:41:59;96701.44;;;11.06;54.91
40992;BME280;29633;49.168;9.848;2023-04-07T04:44:25;96700.22;;;11.10;54.69
40992;BME280;29633;49.168;9.848;2023-04-07T04:46:51;96700.09;;;11.12;54.84
40992;BME280;29633;49.168;9.848;2023-04-07T04:49:17;96700.53;;;11.17;54.81
40992;BME280;29633;49.168;9.848;2023-04-07T04:51:44;96698.50;;;11.20;54.80
40992;BME280;29633;49.168;9.848;2023-04-07T04:54:10;96703.44;;;11.23;54.84
40992;BME280;29633;49.168;9.848;2023-04-07T04:56:35;96704.25;;;11.24;54.57
40992;BME280;29633;49.168;9.848;2023-04-07T04:59:04;96705.75;;;11.26;54.72
40992;BME280;29633;49.168;9.848;2023-04-07T05:01:30;96700.44;;;11.28;54.94
40992;BME280;29633;49.168;9.848;2023-04-07T05:03:58;96711.22;;;11.23;54.97
40992;BME280;29633;49.168;9.848;2023-04-07T05:06:24;96706.84;;;11.24;55.13
40992;BME280;29633;49.168;9.848;2023-04-07T05:08:52;96706.13;;;11.22;55.07
40992;BME280;29633;49.168;9.848;2023-04-07T05:11:17;96699.31;;;11.21;55.24
40992;BME280;29633;49.168;9.848;2023-04-07T05:13:43;96707.78;;;11.23;54.93
40992;BME280;29633;49.168;9.848;2023-04-07T05:16:09;96704.38;;;11.22;55.36
40992;BME280;29633;49.168;9.848;2023-04-07T05:18:34;96705.19;;;11.23;55.09
40992;BME280;29633;49.168;9.848;2023-04-07T05:21:02;96703.31;;;11.25;55.04
40992;BME280;29633;49.168;9.848;2023-04-07T05:23:27;96695.38;;;11.26;55.09
40992;BME280;29633;49.168;9.848;2023-04-07T05:25:53;96697.28;;;11.24;55.16
40992;BME280;29633;49.168;9.848;2023-04-07T05:28:19;96696.47;;;11.24;55.17
40992;BME280;29633;49.168;9.848;2023-04-07T05:30:44;96698.13;;;11.25;55.23
40992;BME280;29633;49.168;9.848;2023-04-07T05:33:10;96694.56;;;11.26;55.11
40992;BME280;29633;49.168;9.848;2023-04-07T05:35:36;96692.09;;;11.24;55.31
40992;BME280;29633;49.168;9.848;2023-04-07T05:38:01;96685.38;;;11.22;55.41
40992;BME280;29633;49.168;9.848;2023-04-07T05:40:27;96700.28;;;11.20;55.44
40992;BME280;29633;49.168;9.848;2023-04-07T05:42:54;96697.78;;;11.18;55.48
40992;BME280;29633;49.168;9.848;2023-04-07T05:45:20;96696.03;;;11.19;55.54
40992;BME280;29633;49.168;9.848;2023-04-07T05:47:46;96701.09;;;11.20;55.43
40992;BME280;29633;49.168;9.848;2023-04-07T05:50:17;96699.44;;;11.19;55.54
40992;BME280;29633;49.168;9.848;2023-04-07T05:52:43;96698.34;;;11.22;55.54
40992;BME280;29633;49.168;9.848;2023-04-07T05:55:09;96698.50;;;11.20;55.58
40992;BME280;29633;49.168;9.848;2023-04-07T05:57:35;96693.44;;;11.19;55.49
40992;BME280;29633;49.168;9.848;2023-04-07T06:00:01;96701.09;;;11.20;55.45
40992;BME280;29633;49.168;9.848;2023-04-07T06:02:26;96694.38;;;11.18;55.57
40992;BME280;29633;49.168;9.848;2023-04-07T06:04:52;96695.91;;;11.20;55.66
40992;BME280;29633;49.168;9.848;2023-04-07T06:07:17;96695.91;;;11.20;55.72
40992;BME280;29633;49.168;9.848;2023-04-07T06:09:43;96700.00;;;11.23;55.80
40992;BME280;29633;49.168;9.848;2023-04-07T06:12:09;96693.88;;;11.24;55.71
40992;BME280;29633;49.168;9.848;2023-04-07T06:14:37;96701.41;;;11.27;55.68
40992;BME280;29633;49.168;9.848;2023-04-07T06:17:02;96701.41;;;11.27;55.66
40992;BME280;29633;49.168;9.848;2023-04-07T06:19:28;96695.25;;;11.28;55.79
40992;BME280;29633;49.168;9.848;2023-04-07T06:21:54;96702.22;;;11.27;55.82
40992;BME280;29633;49.168;9.848;2023-04-07T06:24:19;96704.81;;;11.27;55.91
40992;BME280;29633;49.168;9.848;2023-04-07T06:26:47;96693.34;;;11.30;56.07
40992;BME280;29633;49.168;9.848;2023-04-07T06:29:13;96697.72;;;11.29;55.99
40992;BME280;29633;49.168;9.848;2023-04-07T06:31:39;96686.38;;;11.30;55.93
40992;BME280;29633;49.168;9.848;2023-04-07T06:34:04;96695.69;;;11.33;55.89
40992;BME280;29633;49.168;9.848;2023-04-07T06:36:30;96699.25;;;11.32;55.99
40992;BME280;29633;49.168;9.848;2023-04-07T06:38:57;96699.25;;;11.32;55.84
40992;BME280;29633;49.168;9.848;2023-04-07T06:41:22;96696.78;;;11.30;56.08
40992;BME280;29633;49.168;9.848;2023-04-07T06:43:48;96698.97;;;11.35;56.23
40992;BME280;29633;49.168;9.848;2023-04-07T06:46:16;96693.53;;;11.38;55.96
40992;BME280;29633;49.168;9.848;2023-04-07T06:48:41;96694.09;;;11.42;56.07
40992;BME280;29633;49.168;9.848;2023-04-07T06:51:07;96694.91;;;11.42;55.95
40992;BME280;29633;49.168;9.848;2023-04-07T06:53:33;96694.91;;;11.42;56.09
40992;BME280;29633;49.168;9.848;2023-04-07T06:56:06;96695.41;;;11.36;56.05
40992;BME280;29633;49.168;9.848;2023-04-07T06:58:32;96695.94;;;11.30;56.29
40992;BME280;29633;49.168;9.848;2023-04-07T07:00:59;96700.00;;;11.23;56.41
40992;BME280;29633;49.168;9.848;2023-04-07T07:03:25;96698.34;;;11.22;56.19
40992;BME280;29633;49.168;9.848;2023-04-07T07:05:53;96695.06;;;11.20;56.59
40992;BME280;29633;49.168;9.848;2023-04-07T07:08:21;96692.47;;;11.20;56.50
40992;BME280;29633;49.168;9.848;2023-04-07T07:10:47;96692.22;;;11.23;56.47
40992;BME280;29633;49.168;9.848;2023-04-07T07:13:12;96695.66;;;11.23;56.34
40992;BME280;29633;49.168;9.848;2023-04-07T07:15:38;96693.72;;;11.25;56.37
40992;BME280;29633;49.168;9.848;2023-04-07T07:18:04;96701.13;;;11.30;56.49
40992;BME280;29633;49.168;9.848;2023-04-07T07:20:29;96694.06;;;11.32;56.54
40992;BME280;29633;49.168;9.848;2023-04-07T07:22:55;96693.22;;;11.31;56.75
40992;BME280;29633;49.168;9.848;2023-04-07T07:25:21;96698.53;;;11.30;56.70
40992;BME280;29633;49.168;9.848;2023-04-07T07:27:47;96703.34;;;11.34;56.63
40992;BME280;29633;49.168;9.848;2023-04-07T07:30:20;96701.59;;;11.35;56.79
40992;BME280;29633;49.168;9.848;2023-04-07T07:32:46;96701.31;;;11.38;56.60
40992;BME280;29633;49.168;9.848;2023-04-07T07:35:11;96691.34;;;11.43;56.48
40992;BME280;29633;49.168;9.848;2023-04-07T07:37:37;96697.94;;;11.47;56.56
40992;BME280;29633;49.168;9.848;2023-04-07T07:40:03;96700.53;;;11.47;56.71
40992;BME280;29633;49.168;9.848;2023-04-07T07:42:30;96696.69;;;11.42;56.82
40992;BME280;29633;49.168;9.848;2023-04-07T07:44:56;96696.81;;;11.40;56.77
40992;BME280;29633;49.168;9.848;2023-04-07T07:47:22;96700.59;;;11.36;56.64
40992;BME280;29633;49.168;9.848;2023-04-07T07:49:48;96703.91;;;11.38;56.96
40992;BME280;29633;49.168;9.848;2023-04-07T07:52:13;96706.34;;;11.40;57.17
40992;BME280;29633;49.168;9.848;2023-04-07T07:54:39;96706.69;;;11.46;56.80
40992;BME280;29633;49.168;9.848;2023-04-07T07:57:05;96709.69;;;11.51;57.07
40992;BME280;29633;49.168;9.848;2023-04-07T07:59:31;96715.59;;;11.53;56.93
40992;BME280;29633;49.168;9.848;2023-04-07T08:01:56;96711.34;;;11.52;57.01
40992;BME280;29633;49.168;9.848;2023-04-07T08:04:22;96706.97;;;11.53;56.97
40992;BME280;29633;49.168;9.848;2023-04-07T08:06:51;96710.81;;;11.58;56.87
40992;BME280;29633;49.168;9.848;2023-04-07T08:09:18;96714.13;;;11.60;57.08
40992;BME280;29633;49.168;9.848;2023-04-07T08:11:44;96712.19;;;11.62;57.23
40992;BME280;29633;49.168;9.848;2023-04-07T08:14:09;96709.91;;;11.69;57.22
40992;BME280;29633;49.168;9.848;2023-04-07T08:16:35;96712.28;;;11.72;57.05
40992;BME280;29633;49.168;9.848;2023-04-07T08:19:01;96713.09;;;11.72;57.30
40992;BME280;29633;49.168;9.848;2023-04-07T08:21:27;96711.75;;;11.78;57.09
40992;BME280;29633;49.168;9.848;2023-04-07T08:23:53;96718.88;;;11.86;57.13
40992;BME280;29633;49.168;9.848;2023-04-07T08:26:19;96718.06;;;11.85;57.44
40992;BME280;29633;49.168;9.848;2023-04-07T08:28:46;96724.50;;;11.91;57.33
40992;BME280;29633;49.168;9.848;2023-04-07T08:31:12;96725.59;;;11.98;57.26
40992;BME280;29633;49.168;9.848;2023-04-07T08:33:37;96729.19;;;12.06;57.32
40992;BME280;29633;49.168;9.848;2023-04-07T08:36:03;96728.09;;;12.09;57.30
40992;BME280;29633;49.168;9.848;2023-04-07T08:38:29;96722.38;;;12.15;57.49
40992;BME280;29633;49.168;9.848;2023-04-07T08:41:03;96730.47;;;12.21;57.45
40992;BME280;29633;49.168;9.848;2023-04-07T08:43:31;96720.22;;;12.29;57.33
40992;BME280;29633;49.168;9.848;2023-04-07T08:45:58;96719.53;;;12.37;57.29
40992;BME280;29633;49.168;9.848;2023-04-07T08:48:24;96725.03;;;12.44;57.23
40992;BME280;29633;49.168;9.848;2023-04-07T08:50:51;96721.75;;;12.51;57.31
40992;BME280;29633;49.168;9.848;2023-04-07T08:53:21;96722.00;;;12.58;57.10
40992;BME280;29633;49.168;9.848;2023-04-07T08:55:48;96717.06;;;12.64;57.43
40992;BME280;29633;49.168;9.848;2023-04-07T08:58:13;96718.28;;;12.70;57.33
40992;BME280;29633;49.168;9.848;2023-04-07T09:00:41;96728.00;;;12.77;57.31
40992;BME280;29633;49.168;9.848;2023-04-07T09:03:07;96721.88;;;12.78;57.30
40992;BME280;29633;49.168;9.848;2023-04-07T09:05:34;96730.34;;;12.80;57.43
40992;BME280;29633;49.168;9.848;2023-04-07T09:08:01;96725.56;;;12.86;57.46
40992;BME280;29633;49.168;9.848;2023-04-07T09:10:27;96722.38;;;12.92;57.61
40992;BME280;29633;49.168;9.848;2023-04-07T09:12:53;96724.47;;;12.98;57.47
40992;BME280;29633;49.168;9.848;2023-04-07T09:15:19;96726.50;;;13.04;57.56
40992;BME280;29633;49.168;9.848;2023-04-07T09:17:44;96726.22;;;13.07;57.69
40992;BME280;29633;49.168;9.848;2023-04-07T09:20:10;96730.22;;;13.11;57.65
40992;BME280;29633;49.168;9.848;2023-04-07T09:22:40;96729.38;;;13.10;57.63
40992;BME280;29633;49.168;9.848;2023-04-07T09:25:22;96732.53;;;13.14;57.76
40992;BME280;29633;49.168;9.848;2023-04-07T09:28:08;96724.84;;;13.22;57.71
40992;BME280;29633;49.168;9.848;2023-04-07T09:30:34;96719.34;;;13.25;57.62
40992;BME280;29633;49.168;9.848;2023-04-07T09:33:00;96724.03;;;13.21;57.92
40992;BME280;29633;49.168;9.848;2023-04-07T09:35:26;96719.63;;;13.22;57.83
40992;BME280;29633;49.168;9.848;2023-04-07T09:38:03;96719.06;;;13.28;57.97
40992;BME280;29633;49.168;9.848;2023-04-07T09:40:29;96725.78;;;13.30;58.02
40992;BME280;29633;49.168;9.848;2023-04-07T09:42:55;96722.50;;;13.38;57.94
40992;BME280;29633;49.168;9.848;2023-04-07T09:45:24;96722.50;;;13.38;58.01
40992;BME280;29633;49.168;9.848;2023-04-07T09:47:50;96724.28;;;13.38;57.96
40992;BME280;29633;49.168;9.848;2023-04-07T09:50:29;96729.03;;;13.42;58.15
40992;BME280;29633;49.168;9.848;2023-04-07T09:52:55;96728.78;;;13.45;58.11
40992;BME280;29633;49.168;9.848;2023-04-07T09:55:22;96730.38;;;13.46;58.05
40992;BME280;29633;49.168;9.848;2023-04-07T09:57:49;96725.88;;;13.48;57.95
40992;BME280;29633;49.168;9.848;2023-04-07T10:00:14;96732.88;;;13.48;58.12
40992;BME280;29633;49.168;9.848;2023-04-07T10:02:40;96730.38;;;13.46;58.29
40992;BME280;29633;49.168;9.848;2023-04-07T10:05:06;96731.09;;;13.48;58.11
40992;BME280;29633;49.168;9.848;2023-04-07T10:07:32;96729.84;;;13.52;58.41
40992;BME280;29633;49.168;9.848;2023-04-07T10:09:58;96734.06;;;13.53;58.28
40992;BME280;29633;49.168;9.848;2023-04-07T10:12:23;96735.84;;;13.62;58.37
40992;BME280;29633;49.168;9.848;2023-04-07T10:14:49;96737.16;;;13.76;58.06
40992;BME280;29633;49.168;9.848;2023-04-07T10:17:18;96734.88;;;13.91;58.25
40992;BME280;29633;49.168;9.848;2023-04-07T10:19:45;96732.75;;;14.04;58.07
40992;BME280;29633;49.168;9.848;2023-04-07T10:22:15;96735.63;;;14.10;58.01
40992;BME280;29633;49.168;9.848;2023-04-07T10:24:58;96736.22;;;14.22;57.96
40992;BME280;29633;49.168;9.848;2023-04-07T10:27:36;96739.88;;;14.29;58.03
40992;BME280;29633;49.168;9.848;2023-04-07T10:30:04;96738.78;;;14.32;58.10
40992;BME280;29633;49.168;9.848;2023-04-07T10:32:31;96735.09;;;14.34;58.10
40992;BME280;29633;49.168;9.848;2023-04-07T10:34:58;96737.78;;;14.42;58.09
40992;BME280;29633;49.168;9.848;2023-04-07T10:37:25;96730.31;;;14.47;58.15
40992;BME280;29633;49.168;9.848;2023-04-07T10:40:25;96738.91;;;14.57;57.98
40992;BME280;29633;49.168;9.848;2023-04-07T10:42:52;96733.63;;;14.67;57.86
40992;BME280;29633;49.168;9.848;2023-04-07T10:45:17;96736.81;;;14.78;57.90
40992;BME280;29633;49.168;9.848;2023-04-07T10:50:29;96738.59;;;14.96;57.89
40992;BME280;29633;49.168;9.848;2023-04-07T10:53:08;96734.84;;;14.98;57.88
40992;BME280;29633;49.168;9.848;2023-04-07T10:55:34;96733.69;;;14.93;58.08
40992;BME280;29633;49.168;9.848;2023-04-07T10:58:14;96737.56;;;14.89;58.15
40992;BME280;29633;49.168;9.848;2023-04-07T11:00:41;96732.84;;;14.92;58.16
40992;BME280;29633;49.168;9.848;2023-04-07T11:03:11;96738.59;;;14.96;58.09
40992;BME280;29633;49.168;9.848;2023-04-07T11:05:41;96747.38;;;14.95;58.19
40992;BME280;29633;49.168;9.848;2023-04-07T11:08:07;96743.16;;;14.94;58.35
40992;BME280;29633;49.168;9.848;2023-04-07T11:10:34;96747.03;;;14.90;58.29
40992;BME280;29633;49.168;9.848;2023-04-07T11:13:06;96739.22;;;14.90;58.29
40992;BME280;29633;49.168;9.848;2023-04-07T11:15:36;96738.38;;;14.89;58.39
40992;BME280;29633;49.168;9.848;2023-04-07T11:18:20;96740.16;;;14.89;58.30
40992;BME280;29633;49.168;9.848;2023-04-07T11:20:55;96742.16;;;14.95;58.34
40992;BME280;29633;49.168;9.848;2023-04-07T11:23:23;96737.78;;;14.95;58.34
40992;BME280;29633;49.168;9.848;2023-04-07T11:25:51;96744.47;;;14.98;58.24
40992;BME280;29633;49.168;9.848;2023-04-07T11:28:20;96743.81;;;14.96;58.34
40992;BME280;29633;49.168;9.848;2023-04-07T11:30:52;96743.94;;;14.94;58.28
40992;BME280;29633;49.168;9.848;2023-04-07T11:33:25;96745.47;;;14.97;58.33
40992;BME280;29633;49.168;9.848;2023-04-07T11:35:55;96750.38;;;15.00;58.42
40992;BME280;29633;49.168;9.848;2023-04-07T11:38:23;96739.63;;;15.03;58.25
40992;BME280;29633;49.168;9.848;2023-04-07T11:40:49;96741.63;;;15.09;58.28
40992;BME280;29633;49.168;9.848;2023-04-07T11:43:22;96742.00;;;15.14;58.23
40992;BME280;29633;49.168;9.848;2023-04-07T11:48:33;96746.28;;;15.23;58.17
40992;BME280;29633;49.168;9.848;2023-04-07T11:51:00;96747.34;;;15.30;58.41
40992;BME280;29633;49.168;9.848;2023-04-07T11:53:31;96746.44;;;15.39;58.17
40992;BME280;29633;49.168;9.848;2023-04-07T11:56:07;96738.97;;;15.44;58.27
40992;BME280;29633;49.168;9.848;2023-04-07T11:58:37;96739.84;;;15.53;58.07
40992;BME280;29633;49.168;9.848;2023-04-07T12:01:05;96726.50;;;15.64;58.22
40992;BME280;29633;49.168;9.848;2023-04-07T12:03:36;96736.06;;;15.81;58.11
40992;BME280;29633;49.168;9.848;2023-04-07T12:06:02;96733.84;;;15.94;58.14
40992;BME280;29633;49.168;9.848;2023-04-07T12:08:42;96737.34;;;16.11;58.15
40992;BME280;29633;49.168;9.848;2023-04-07T12:11:08;96733.94;;;16.18;58.28
40992;BME280;29633;49.168;9.848;2023-04-07T12:13:37;96736.91;;;16.32;58.29
40992;BME280;29633;49.168;9.848;2023-04-07T12:16:03;96727.31;;;16.48;58.17
40992;BME280;29633;49.168;9.848;2023-04-07T12:18:29;96729.00;;;16.65;57.95
40992;BME280;29633;49.168;9.848;2023-04-07T12:20:55;96729.19;;;16.80;58.09
40992;BME280;29633;49.168;9.848;2023-04-07T12:23:22;96732.63;;;16.89;57.99
40992;BME280;29633;49.168;9.848;2023-04-07T12:25:47;96726.41;;;16.98;58.11
40992;BME280;29633;49.168;9.848;2023-04-07T12:28:13;96725.75;;;17.12;58.13
40992;BME280;29633;49.168;9.848;2023-04-07T12:30:39;96732.63;;;17.21;58.11
40992;BME280;29633;49.168;9.848;2023-04-07T12:33:04;96725.06;;;17.34;57.93
40992;BME280;29633;49.168;9.848;2023-04-07T12:35:30;96721.78;;;17.40;58.04
40992;BME280;29633;49.168;9.848;2023-04-07T12:37:56;96725.06;;;17.50;58.19
40992;BME280;29633;49.168;9.848;2023-04-07T12:40:23;96722.13;;;17.61;57.92
40992;BME280;29633;49.168;9.848;2023-04-07T12:42:48;96725.50;;;17.70;57.95
40992;BME280;29633;49.168;9.848;2023-04-07T12:45:14;96719.28;;;17.79;58.06
40992;BME280;29633;49.168;9.848;2023-04-07T12:47:39;96716.44;;;17.89;58.01
40992;BME280;29633;49.168;9.848;2023-04-07T12:50:05;96724.09;;;17.98;57.82
40992;BME280;29633;49.168;9.848;2023-04-07T12:52:31;96718.00;;;18.06;57.82
40992;BME280;29633;49.168;9.848;2023-04-07T12:54:57;96719.16;;;18.11;57.69
40992;BME280;29633;49.168;9.848;2023-04-07T12:57:24;96721.78;;;18.11;57.63
40992;BME280;29633;49.168;9.848;2023-04-07T12:59:49;96716.88;;;18.08;57.72
40992;BME280;29633;49.168;9.848;2023-04-07T13:02:16;96715.84;;;18.09;57.72
40992;BME280;29633;49.168;9.848;2023-04-07T13:04:43;96720.59;;;18.14;57.74
40992;BME280;29633;49.168;9.848;2023-04-07T13:07:14;96720.44;;;18.15;57.54
40992;BME280;29633;49.168;9.848;2023-04-07T13:09:41;96717.00;;;18.15;57.83
40992;BME280;29633;49.168;9.848;2023-04-07T13:12:11;96714.34;;;18.23;57.72
40992;BME280;29633;49.168;9.848;2023-04-07T13:14:38;96717.59;;;18.25;57.58